sensor_id;sensor_type;location;lat;lon;timestamp;P1;durP1;ratioP1;P2;durP2;ratioP2
79543;SDS011;68994;47.176;7.534;2023-05-10T00:00:24;1.75;;;1.08;;
79543;SDS011;68994;47.176;7.534;2023-05-10T00:02:51;1.58;;;1.15;;
79543;SDS011;68994;47.176;7.534;2023-05-10T00:05:18;2.05;;;1.20;;
79543;SDS011;68994;47.176;7.534;2023-05-10T00:07:46;2.75;;;1.42;;
79543;SDS011;68994;47.176;7.534;2023-05-10T00:10:12;2.55;;;1.20;;
79543;SDS011;68994;47.176;7.534;2023-05-10T00:12:39;2.10;;;1.30;;
79543;SDS011;68994;47.176;7.534;2023-05-10T00:15:06;2.53;;;1.38;;
79543;SDS011;68994;47.176;7.534;2023-05-10T00:17:34;2.83;;;1.58;;
79543;SDS011;68994;47.176;7.534;2023-05-10T00:20:01;2.35;;;1.33;;
79543;SDS011;68994;47.176;7.534;2023-05-10T00:22:29;2.00;;;1.42;;
79543;SDS011;68994;47.176;7.534;2023-05-10T00:24:57;3.40;;;1.27;;
79543;SDS011;68994;47.176;7.534;2023-05-10T00:27:24;1.90;;;1.33;;
79543;SDS011;68994;47.176;7.534;2023-05-10T00:29:51;1.80;;;1.13;;
79543;SDS011;68994;47.176;7.534;2023-05-10T00:32:18;2.17;;;1.25;;
79543;SDS011;68994;47.176;7.534;2023-05-10T00:34:44;1.60;;;1.10;;
79543;SDS011;68994;47.176;7.534;2023-05-10T00:37:11;2.65;;;1.42;;
79543;SDS011;68994;47.176;7.534;2023-05-10T00:39:37;3.22;;;1.23;;
79543;SDS011;68994;47.176;7.534;2023-05-10T00:42:05;1.98;;;1.27;;
79543;SDS011;68994;47.176;7.534;2023-05-10T00:46:58;2.17;;;1.92;;
79543;SDS011;68994;47.176;7.534;2023-05-10T00:49:25;1.80;;;1.40;;
79543;SDS011;68994;47.176;7.534;2023-05-10T00:51:52;1.80;;;1.38;;
79543;SDS011;68994;47.176;7.534;2023-05-10T00:54:19;2.90;;;1.35;;
79543;SDS011;68994;47.176;7.534;2023-05-10T00:56:46;1.70;;;1.30;;
79543;SDS011;68994;47.176;7.534;2023-05-10T00:59:15;2.15;;;1.40;;
79543;SDS011;68994;47.176;7.534;2023-05-10T01:01:42;2.97;;;1.30;;
79543;SDS011;68994;47.176;7.534;2023-05-10T01:04:09;4.25;;;1.40;;
79543;SDS011;68994;47.176;7.534;2023-05-10T01:06:37;1.63;;;1.23;;
79543;SDS011;68994;47.176;7.534;2023-05-10T01:09:04;4.63;;;1.30;;
79543;SDS011;68994;47.176;7.534;2023-05-10T01:11:31;2.35;;;1.40;;
79543;SDS011;68994;47.176;7.534;2023-05-10T01:13:58;2.28;;;1.95;;
79543;SDS011;68994;47.176;7.534;2023-05-10T01:16:26;2.38;;;1.50;;
79543;SDS011;68994;47.176;7.534;2023-05-10T01:18:55;2.30;;;1.45;;
79543;SDS011;68994;47.176;7.534;2023-05-10T01:21:23;3.45;;;1.70;;
79543;SDS011;68994;47.176;7.534;2023-05-10T01:24:08;3.30;;;1.83;;
79543;SDS011;68994;47.176;7.534;2023-05-10T01:26:51;2.05;;;1.27;;
79543;SDS011;68994;47.176;7.534;2023-05-10T01:29:34;2.42;;;2.03;;
79543;SDS011;68994;47.176;7.534;2023-05-10T01:32:22;2.13;;;1.77;;
79543;SDS011;68994;47.176;7.534;2023-05-10T01:34:59;2.90;;;1.65;;
79543;SDS011;68994;47.176;7.534;2023-05-10T01:37:31;3.20;;;1.70;;
79543;SDS011;68994;47.176;7.534;2023-05-10T01:40:08;4.10;;;1.75;;
79543;SDS011;68994;47.176;7.534;2023-05-10T01:42:40;2.30;;;1.60;;
79543;SDS011;68994;47.176;7.534;2023-05-10T01:45:14;2.80;;;1.75;;
79543;SDS011;68994;47.176;7.534;2023-05-10T01:47:48;2.33;;;1.55;;
79543;SDS011;68994;47.176;7.534;2023-05-10T01:50:22;2.40;;;1.77;;
79543;SDS011;68994;47.176;7.534;2023-05-10T01:52:54;2.15;;;1.38;;
79543;SDS011;68994;47.176;7.534;2023-05-10T01:55:24;2.30;;;1.45;;
79543;SDS011;68994;47.176;7.534;2023-05-10T01:57:56;2.10;;;1.40;;
79543;SDS011;68994;47.176;7.534;2023-05-10T02:00:28;2.15;;;1.33;;
79543;SDS011;68994;47.176;7.534;2023-05-10T02:05:25;2.40;;;1.35;;
79543;SDS011;68994;47.176;7.534;2023-05-10T02:07:55;2.03;;;1.20;;
79543;SDS011;68994;47.176;7.534;2023-05-10T02:10:24;3.17;;;2.25;;
79543;SDS011;68994;47.176;7.534;2023-05-10T02:12:52;2.13;;;1.63;;
79543;SDS011;68994;47.176;7.534;2023-05-10T02:15:22;3.40;;;1.70;;
79543;SDS011;68994;47.176;7.534;2023-05-10T02:17:50;2.63;;;1.48;;
79543;SDS011;68994;47.176;7.534;2023-05-10T02:20:20;2.92;;;1.92;;
79543;SDS011;68994;47.176;7.534;2023-05-10T02:22:48;2.63;;;1.73;;
79543;SDS011;68994;47.176;7.534;2023-05-10T02:25:17;2.33;;;1.45;;
79543;SDS011;68994;47.176;7.534;2023-05-10T02:27:45;2.67;;;1.75;;
79543;SDS011;68994;47.176;7.534;2023-05-10T02:30:13;2.63;;;1.67;;
79543;SDS011;68994;47.176;7.534;2023-05-10T02:32:41;4.18;;;1.85;;
79543;SDS011;68994;47.176;7.534;2023-05-10T02:35:10;3.15;;;1.75;;
79543;SDS011;68994;47.176;7.534;2023-05-10T02:37:38;2.40;;;2.00;;
79543;SDS011;68994;47.176;7.534;2023-05-10T02:40:06;2.45;;;1.92;;
79543;SDS011;68994;47.176;7.534;2023-05-10T02:42:35;1.83;;;1.40;;
79543;SDS011;68994;47.176;7.534;2023-05-10T02:45:05;2.67;;;1.98;;
79543;SDS011;68994;47.176;7.534;2023-05-10T02:47:36;2.70;;;1.70;;
79543;SDS011;68994;47.176;7.534;2023-05-10T02:50:03;2.13;;;1.42;;
79543;SDS011;68994;47.176;7.534;2023-05-10T02:52:35;2.70;;;1.80;;
79543;SDS011;68994;47.176;7.534;2023-05-10T02:55:07;4.75;;;2.08;;
79543;SDS011;68994;47.176;7.534;2023-05-10T02:57:36;4.30;;;1.67;;
79543;SDS011;68994;47.176;7.534;2023-05-10T03:00:07;2.05;;;1.50;;
79543;SDS011;68994;47.176;7.534;2023-05-10T03:02:34;3.78;;;1.60;;
79543;SDS011;68994;47.176;7.534;2023-05-10T03:05:01;1.58;;;1.15;;
79543;SDS011;68994;47.176;7.534;2023-05-10T03:07:28;1.92;;;1.65;;
79543;SDS011;68994;47.176;7.534;2023-05-10T03:09:54;2.97;;;1.73;;
79543;SDS011;68994;47.176;7.534;2023-05-10T03:12:23;2.28;;;1.60;;
79543;SDS011;68994;47.176;7.534;2023-05-10T03:15:00;1.90;;;1.38;;
79543;SDS011;68994;47.176;7.534;2023-05-10T03:17:34;7.05;;;2.85;;
79543;SDS011;68994;47.176;7.534;2023-05-10T03:20:08;2.42;;;2.05;;
79543;SDS011;68994;47.176;7.534;2023-05-10T03:22:38;1.80;;;1.25;;
79543;SDS011;68994;47.176;7.534;2023-05-10T03:25:10;2.10;;;1.70;;
79543;SDS011;68994;47.176;7.534;2023-05-10T03:27:40;2.40;;;1.75;;
79543;SDS011;68994;47.176;7.534;2023-05-10T03:30:10;3.03;;;1.80;;
79543;SDS011;68994;47.176;7.534;2023-05-10T03:32:38;1.92;;;1.63;;
79543;SDS011;68994;47.176;7.534;2023-05-10T03:35:06;2.08;;;1.70;;
79543;SDS011;68994;47.176;7.534;2023-05-10T03:39:59;1.95;;;1.55;;
79543;SDS011;68994;47.176;7.534;2023-05-10T03:42:26;2.50;;;1.88;;
79543;SDS011;68994;47.176;7.534;2023-05-10T03:44:54;2.00;;;1.63;;
79543;SDS011;68994;47.176;7.534;2023-05-10T03:49:47;3.13;;;1.73;;
79543;SDS011;68994;47.176;7.534;2023-05-10T03:52:14;2.10;;;1.80;;
79543;SDS011;68994;47.176;7.534;2023-05-10T03:54:40;3.40;;;1.52;;
79543;SDS011;68994;47.176;7.534;2023-05-10T03:57:07;3.60;;;1.75;;
79543;SDS011;68994;47.176;7.534;2023-05-10T03:59:34;2.42;;;1.95;;
79543;SDS011;68994;47.176;7.534;2023-05-10T04:02:02;2.42;;;2.00;;
79543;SDS011;68994;47.176;7.534;2023-05-10T04:04:29;2.55;;;1.80;;
79543;SDS011;68994;47.176;7.534;2023-05-10T04:06:55;3.15;;;2.10;;
79543;SDS011;68994;47.176;7.534;2023-05-10T04:09:22;2.30;;;1.92;;
79543;SDS011;68994;47.176;7.534;2023-05-10T04:11:49;3.45;;;1.92;;
79543;SDS011;68994;47.176;7.534;2023-05-10T04:14:15;2.20;;;1.42;;
79543;SDS011;68994;47.176;7.534;2023-05-10T04:16:42;2.45;;;1.50;;
79543;SDS011;68994;47.176;7.534;2023-05-10T04:19:10;2.85;;;1.75;;
79543;SDS011;68994;47.176;7.534;2023-05-10T04:21:37;1.90;;;1.33;;
79543;SDS011;68994;47.176;7.534;2023-05-10T04:24:03;3.25;;;1.65;;
79543;SDS011;68994;47.176;7.534;2023-05-10T04:26:30;2.70;;;1.73;;
79543;SDS011;68994;47.176;7.534;2023-05-10T04:28:57;3.78;;;1.63;;
79543;SDS011;68994;47.176;7.534;2023-05-10T04:31:23;2.05;;;1.42;;
79543;SDS011;68994;47.176;7.534;2023-05-10T04:33:51;2.75;;;1.80;;
79543;SDS011;68994;47.176;7.534;2023-05-10T04:36:19;1.92;;;1.30;;
79543;SDS011;68994;47.176;7.534;2023-05-10T04:38:45;2.90;;;2.25;;
79543;SDS011;68994;47.176;7.534;2023-05-10T04:41:12;4.88;;;2.33;;
79543;SDS011;68994;47.176;7.534;2023-05-10T04:43:38;2.63;;;2.05;;
79543;SDS011;68994;47.176;7.534;2023-05-10T04:46:05;2.42;;;1.52;;
79543;SDS011;68994;47.176;7.534;2023-05-10T04:48:32;2.35;;;1.52;;
79543;SDS011;68994;47.176;7.534;2023-05-10T04:50:59;2.78;;;1.55;;
79543;SDS011;68994;47.176;7.534;2023-05-10T04:53:27;6.07;;;1.88;;
79543;SDS011;68994;47.176;7.534;2023-05-10T04:55:54;2.38;;;1.65;;
79543;SDS011;68994;47.176;7.534;2023-05-10T04:58:20;2.90;;;1.90;;
79543;SDS011;68994;47.176;7.534;2023-05-10T05:00:47;2.90;;;1.73;;
79543;SDS011;68994;47.176;7.534;2023-05-10T05:03:13;3.55;;;1.70;;
79543;SDS011;68994;47.176;7.534;2023-05-10T05:05:40;2.97;;;1.83;;
79543;SDS011;68994;47.176;7.534;2023-05-10T05:08:06;2.45;;;2.03;;
79543;SDS011;68994;47.176;7.534;2023-05-10T05:10:35;2.92;;;2.22;;
79543;SDS011;68994;47.176;7.534;2023-05-10T05:13:01;2.72;;;1.75;;
79543;SDS011;68994;47.176;7.534;2023-05-10T05:15:28;3.35;;;1.73;;
79543;SDS011;68994;47.176;7.534;2023-05-10T05:17:55;2.63;;;1.92;;
79543;SDS011;68994;47.176;7.534;2023-05-10T05:20:22;3.17;;;1.85;;
79543;SDS011;68994;47.176;7.534;2023-05-10T05:22:48;4.55;;;2.42;;
79543;SDS011;68994;47.176;7.534;2023-05-10T05:25:15;2.88;;;1.92;;
79543;SDS011;68994;47.176;7.534;2023-05-10T05:27:43;3.35;;;1.88;;
79543;SDS011;68994;47.176;7.534;2023-05-10T05:32:37;2.45;;;1.45;;
79543;SDS011;68994;47.176;7.534;2023-05-10T05:35:04;2.38;;;1.40;;
79543;SDS011;68994;47.176;7.534;2023-05-10T05:37:31;1.83;;;1.20;;
79543;SDS011;68994;47.176;7.534;2023-05-10T05:39:57;1.75;;;1.25;;
79543;SDS011;68994;47.176;7.534;2023-05-10T05:42:26;2.90;;;1.30;;
79543;SDS011;68994;47.176;7.534;2023-05-10T05:44:54;2.25;;;1.42;;
79543;SDS011;68994;47.176;7.534;2023-05-10T05:47:20;1.83;;;1.30;;
79543;SDS011;68994;47.176;7.534;2023-05-10T05:49:47;2.83;;;1.35;;
79543;SDS011;68994;47.176;7.534;2023-05-10T05:52:13;2.00;;;1.42;;
79543;SDS011;68994;47.176;7.534;2023-05-10T05:54:40;2.47;;;1.75;;
79543;SDS011;68994;47.176;7.534;2023-05-10T05:57:07;4.65;;;1.58;;
79543;SDS011;68994;47.176;7.534;2023-05-10T05:59:34;4.07;;;1.52;;
79543;SDS011;68994;47.176;7.534;2023-05-10T06:02:01;2.65;;;1.42;;
79543;SDS011;68994;47.176;7.534;2023-05-10T06:04:28;5.35;;;1.30;;
79543;SDS011;68994;47.176;7.534;2023-05-10T06:06:55;2.75;;;1.60;;
79543;SDS011;68994;47.176;7.534;2023-05-10T06:09:21;1.63;;;1.10;;
79543;SDS011;68994;47.176;7.534;2023-05-10T06:11:49;2.88;;;1.35;;
79543;SDS011;68994;47.176;7.534;2023-05-10T06:14:16;1.48;;;1.17;;
79543;SDS011;68994;47.176;7.534;2023-05-10T06:16:42;1.98;;;1.27;;
79543;SDS011;68994;47.176;7.534;2023-05-10T06:19:10;3.70;;;1.30;;
79543;SDS011;68994;47.176;7.534;2023-05-10T06:21:37;1.98;;;1.38;;
79543;SDS011;68994;47.176;7.534;2023-05-10T06:24:04;2.65;;;1.23;;
79543;SDS011;68994;47.176;7.534;2023-05-10T06:26:31;2.15;;;1.55;;
79543;SDS011;68994;47.176;7.534;2023-05-10T06:28:58;3.28;;;1.77;;
79543;SDS011;68994;47.176;7.534;2023-05-10T06:31:24;2.40;;;1.63;;
79543;SDS011;68994;47.176;7.534;2023-05-10T06:33:51;2.45;;;1.38;;
79543;SDS011;68994;47.176;7.534;2023-05-10T06:36:19;2.05;;;1.55;;
79543;SDS011;68994;47.176;7.534;2023-05-10T06:38:47;2.30;;;1.83;;
79543;SDS011;68994;47.176;7.534;2023-05-10T06:41:13;4.25;;;1.60;;
79543;SDS011;68994;47.176;7.534;2023-05-10T06:43:40;3.15;;;1.30;;
79543;SDS011;68994;47.176;7.534;2023-05-10T06:46:08;2.30;;;1.23;;
79543;SDS011;68994;47.176;7.534;2023-05-10T06:48:34;2.28;;;1.25;;
79543;SDS011;68994;47.176;7.534;2023-05-10T06:51:01;1.83;;;1.17;;
79543;SDS011;68994;47.176;7.534;2023-05-10T06:53:29;1.98;;;1.30;;
79543;SDS011;68994;47.176;7.534;2023-05-10T06:55:55;2.83;;;1.35;;
79543;SDS011;68994;47.176;7.534;2023-05-10T06:58:22;3.17;;;1.55;;
79543;SDS011;68994;47.176;7.534;2023-05-10T07:00:48;3.03;;;1.40;;
79543;SDS011;68994;47.176;7.534;2023-05-10T07:03:15;3.00;;;1.25;;
79543;SDS011;68994;47.176;7.534;2023-05-10T07:05:42;3.78;;;1.83;;
79543;SDS011;68994;47.176;7.534;2023-05-10T07:08:08;3.97;;;1.20;;
79543;SDS011;68994;47.176;7.534;2023-05-10T07:10:36;3.60;;;1.55;;
79543;SDS011;68994;47.176;7.534;2023-05-10T07:13:03;3.35;;;1.52;;
79543;SDS011;68994;47.176;7.534;2023-05-10T07:15:29;2.20;;;1.25;;
79543;SDS011;68994;47.176;7.534;2023-05-10T07:17:56;2.72;;;1.35;;
79543;SDS011;68994;47.176;7.534;2023-05-10T07:20:23;2.22;;;1.45;;
79543;SDS011;68994;47.176;7.534;2023-05-10T07:22:49;2.65;;;1.33;;
79543;SDS011;68994;47.176;7.534;2023-05-10T07:25:16;3.08;;;1.45;;
79543;SDS011;68994;47.176;7.534;2023-05-10T07:27:44;1.92;;;1.35;;
79543;SDS011;68994;47.176;7.534;2023-05-10T07:32:38;2.78;;;1.60;;
79543;SDS011;68994;47.176;7.534;2023-05-10T07:35:07;4.25;;;1.63;;
79543;SDS011;68994;47.176;7.534;2023-05-10T07:37:34;3.22;;;1.38;;
79543;SDS011;68994;47.176;7.534;2023-05-10T07:40:01;3.83;;;1.40;;
79543;SDS011;68994;47.176;7.534;2023-05-10T07:42:27;2.35;;;1.70;;
79543;SDS011;68994;47.176;7.534;2023-05-10T07:44:55;2.95;;;1.48;;
79543;SDS011;68994;47.176;7.534;2023-05-10T07:47:22;4.47;;;1.40;;
79543;SDS011;68994;47.176;7.534;2023-05-10T07:49:48;3.55;;;1.55;;
79543;SDS011;68994;47.176;7.534;2023-05-10T07:52:15;2.72;;;1.88;;
79543;SDS011;68994;47.176;7.534;2023-05-10T07:54:41;3.38;;;2.03;;
79543;SDS011;68994;47.176;7.534;2023-05-10T07:57:08;2.70;;;1.30;;
79543;SDS011;68994;47.176;7.534;2023-05-10T07:59:34;3.50;;;1.42;;
79543;SDS011;68994;47.176;7.534;2023-05-10T08:02:02;3.17;;;1.48;;
79543;SDS011;68994;47.176;7.534;2023-05-10T08:04:29;2.65;;;1.52;;
79543;SDS011;68994;47.176;7.534;2023-05-10T08:06:55;2.80;;;1.45;;
79543;SDS011;68994;47.176;7.534;2023-05-10T08:09:22;5.00;;;1.73;;
79543;SDS011;68994;47.176;7.534;2023-05-10T08:11:49;2.33;;;1.27;;
79543;SDS011;68994;47.176;7.534;2023-05-10T08:14:15;4.35;;;1.90;;
79543;SDS011;68994;47.176;7.534;2023-05-10T08:16:42;3.97;;;2.17;;
79543;SDS011;68994;47.176;7.534;2023-05-10T08:19:10;4.30;;;2.17;;
79543;SDS011;68994;47.176;7.534;2023-05-10T08:21:36;4.20;;;2.20;;
79543;SDS011;68994;47.176;7.534;2023-05-10T08:24:03;3.72;;;1.85;;
79543;SDS011;68994;47.176;7.534;2023-05-10T08:26:30;2.80;;;1.75;;
79543;SDS011;68994;47.176;7.534;2023-05-10T08:28:59;3.72;;;1.55;;
79543;SDS011;68994;47.176;7.534;2023-05-10T08:31:25;2.95;;;1.58;;
79543;SDS011;68994;47.176;7.534;2023-05-10T08:33:52;2.65;;;1.45;;
79543;SDS011;68994;47.176;7.534;2023-05-10T08:36:20;3.85;;;1.73;;
79543;SDS011;68994;47.176;7.534;2023-05-10T08:38:49;4.32;;;1.95;;
79543;SDS011;68994;47.176;7.534;2023-05-10T08:41:16;4.93;;;1.52;;
79543;SDS011;68994;47.176;7.534;2023-05-10T08:43:45;5.00;;;1.73;;
79543;SDS011;68994;47.176;7.534;2023-05-10T08:46:13;2.38;;;1.65;;
79543;SDS011;68994;47.176;7.534;2023-05-10T08:48:42;2.42;;;1.23;;
79543;SDS011;68994;47.176;7.534;2023-05-10T08:51:09;4.25;;;1.55;;
79543;SDS011;68994;47.176;7.534;2023-05-10T08:53:41;2.40;;;1.27;;
79543;SDS011;68994;47.176;7.534;2023-05-10T08:56:08;3.40;;;1.45;;
79543;SDS011;68994;47.176;7.534;2023-05-10T08:58:34;2.28;;;1.40;;
79543;SDS011;68994;47.176;7.534;2023-05-10T09:01:02;3.50;;;1.35;;
79543;SDS011;68994;47.176;7.534;2023-05-10T09:03:29;2.05;;;1.40;;
79543;SDS011;68994;47.176;7.534;2023-05-10T09:05:56;4.57;;;1.40;;
79543;SDS011;68994;47.176;7.534;2023-05-10T09:08:23;5.60;;;1.67;;
79543;SDS011;68994;47.176;7.534;2023-05-10T09:10:53;2.10;;;1.20;;
79543;SDS011;68994;47.176;7.534;2023-05-10T09:13:20;2.53;;;1.30;;
79543;SDS011;68994;47.176;7.534;2023-05-10T09:15:49;3.90;;;1.52;;
79543;SDS011;68994;47.176;7.534;2023-05-10T09:18:16;2.08;;;1.20;;
79543;SDS011;68994;47.176;7.534;2023-05-10T09:20:43;4.03;;;2.05;;
79543;SDS011;68994;47.176;7.534;2023-05-10T09:23:10;4.55;;;1.50;;
79543;SDS011;68994;47.176;7.534;2023-05-10T09:25:36;3.67;;;1.30;;
79543;SDS011;68994;47.176;7.534;2023-05-10T09:28:07;4.40;;;1.60;;
79543;SDS011;68994;47.176;7.534;2023-05-10T09:30:34;2.42;;;1.48;;
79543;SDS011;68994;47.176;7.534;2023-05-10T09:33:02;3.17;;;0.85;;
79543;SDS011;68994;47.176;7.534;2023-05-10T09:35:29;3.05;;;0.88;;
79543;SDS011;68994;47.176;7.534;2023-05-10T09:37:57;2.17;;;1.00;;
79543;SDS011;68994;47.176;7.534;2023-05-10T09:40:26;6.05;;;1.80;;
79543;SDS011;68994;47.176;7.534;2023-05-10T09:42:54;2.60;;;1.30;;
79543;SDS011;68994;47.176;7.534;2023-05-10T09:45:22;3.50;;;1.23;;
79543;SDS011;68994;47.176;7.534;2023-05-10T09:47:50;1.85;;;0.90;;
79543;SDS011;68994;47.176;7.534;2023-05-10T09:50:16;2.90;;;1.15;;
79543;SDS011;68994;47.176;7.534;2023-05-10T09:52:47;1.98;;;1.00;;
79543;SDS011;68994;47.176;7.534;2023-05-10T09:55:15;3.60;;;1.33;;
79543;SDS011;68994;47.176;7.534;2023-05-10T09:57:42;4.22;;;1.40;;
79543;SDS011;68994;47.176;7.534;2023-05-10T10:00:09;3.35;;;1.48;;
79543;SDS011;68994;47.176;7.534;2023-05-10T10:02:38;3.10;;;1.10;;
79543;SDS011;68994;47.176;7.534;2023-05-10T10:05:06;2.78;;;1.20;;
79543;SDS011;68994;47.176;7.534;2023-05-10T10:07:33;3.30;;;1.30;;
79543;SDS011;68994;47.176;7.534;2023-05-10T10:10:00;4.78;;;1.35;;
79543;SDS011;68994;47.176;7.534;2023-05-10T10:12:28;4.45;;;1.42;;
79543;SDS011;68994;47.176;7.534;2023-05-10T10:14:55;2.83;;;1.65;;
79543;SDS011;68994;47.176;7.534;2023-05-10T10:17:22;2.97;;;1.20;;
79543;SDS011;68994;47.176;7.534;2023-05-10T10:19:54;6.15;;;1.65;;
79543;SDS011;68994;47.176;7.534;2023-05-10T10:22:23;3.00;;;1.52;;
79543;SDS011;68994;47.176;7.534;2023-05-10T10:24:50;3.72;;;1.17;;
79543;SDS011;68994;47.176;7.534;2023-05-10T10:27:19;2.85;;;1.10;;
79543;SDS011;68994;47.176;7.534;2023-05-10T10:29:52;2.55;;;1.50;;
79543;SDS011;68994;47.176;7.534;2023-05-10T10:32:29;2.10;;;1.00;;
79543;SDS011;68994;47.176;7.534;2023-05-10T10:35:05;4.50;;;1.20;;
79543;SDS011;68994;47.176;7.534;2023-05-10T10:37:43;2.67;;;1.15;;
79543;SDS011;68994;47.176;7.534;2023-05-10T10:40:23;2.53;;;1.08;;
79543;SDS011;68994;47.176;7.534;2023-05-10T10:42:51;3.78;;;1.30;;
79543;SDS011;68994;47.176;7.534;2023-05-10T10:45:19;3.88;;;1.30;;
79543;SDS011;68994;47.176;7.534;2023-05-10T10:47:47;2.80;;;1.55;;
79543;SDS011;68994;47.176;7.534;2023-05-10T10:50:16;2.33;;;1.52;;
79543;SDS011;68994;47.176;7.534;2023-05-10T10:52:43;2.13;;;1.20;;
79543;SDS011;68994;47.176;7.534;2023-05-10T10:55:10;4.22;;;1.52;;
79543;SDS011;68994;47.176;7.534;2023-05-10T10:57:45;3.55;;;1.38;;
79543;SDS011;68994;47.176;7.534;2023-05-10T11:03:03;3.20;;;1.90;;
79543;SDS011;68994;47.176;7.534;2023-05-10T11:05:37;2.70;;;1.40;;
79543;SDS011;68994;47.176;7.534;2023-05-10T11:08:07;2.20;;;1.60;;
79543;SDS011;68994;47.176;7.534;2023-05-10T11:10:36;3.15;;;1.35;;
79543;SDS011;68994;47.176;7.534;2023-05-10T11:13:04;2.55;;;1.35;;
79543;SDS011;68994;47.176;7.534;2023-05-10T11:15:32;3.10;;;1.60;;
79543;SDS011;68994;47.176;7.534;2023-05-10T11:18:01;3.20;;;1.20;;
79543;SDS011;68994;47.176;7.534;2023-05-10T11:20:44;3.33;;;1.25;;
79543;SDS011;68994;47.176;7.534;2023-05-10T11:23:17;4.35;;;1.65;;
79543;SDS011;68994;47.176;7.534;2023-05-10T11:25:46;2.25;;;1.10;;
79543;SDS011;68994;47.176;7.534;2023-05-10T11:28:13;3.90;;;1.00;;
79543;SDS011;68994;47.176;7.534;2023-05-10T11:30:41;2.20;;;1.10;;
79543;SDS011;68994;47.176;7.534;2023-05-10T11:33:09;2.25;;;1.13;;
79543;SDS011;68994;47.176;7.534;2023-05-10T11:35:40;3.15;;;1.10;;
79543;SDS011;68994;47.176;7.534;2023-05-10T11:38:09;1.77;;;1.00;;
79543;SDS011;68994;47.176;7.534;2023-05-10T11:40:37;3.15;;;1.17;;
79543;SDS011;68994;47.176;7.534;2023-05-10T11:43:04;2.88;;;1.05;;
79543;SDS011;68994;47.176;7.534;2023-05-10T11:45:31;2.00;;;0.60;;
79543;SDS011;68994;47.176;7.534;2023-05-10T11:47:58;1.67;;;0.95;;
79543;SDS011;68994;47.176;7.534;2023-05-10T11:50:25;2.58;;;1.10;;
79543;SDS011;68994;47.176;7.534;2023-05-10T11:52:53;2.65;;;1.10;;
79543;SDS011;68994;47.176;7.534;2023-05-10T11:55:21;1.95;;;1.10;;
79543;SDS011;68994;47.176;7.534;2023-05-10T11:57:51;2.55;;;1.10;;
79543;SDS011;68994;47.176;7.534;2023-05-10T12:00:18;1.50;;;0.82;;
79543;SDS011;68994;47.176;7.534;2023-05-10T12:02:44;0.98;;;0.60;;
79543;SDS011;68994;47.176;7.534;2023-05-10T12:05:11;1.52;;;1.15;;
79543;SDS011;68994;47.176;7.534;2023-05-10T12:07:38;1.40;;;1.08;;
79543;SDS011;68994;47.176;7.534;2023-05-10T12:10:06;1.73;;;0.73;;
79543;SDS011;68994;47.176;7.534;2023-05-10T12:12:39;3.88;;;0.98;;
79543;SDS011;68994;47.176;7.534;2023-05-10T12:15:10;8.35;;;0.90;;
79543;SDS011;68994;47.176;7.534;2023-05-10T12:17:38;1.15;;;0.65;;
79543;SDS011;68994;47.176;7.534;2023-05-10T12:20:18;3.00;;;0.70;;
79543;SDS011;68994;47.176;7.534;2023-05-10T12:22:47;1.58;;;0.90;;
79543;SDS011;68994;47.176;7.534;2023-05-10T12:25:17;1.60;;;0.95;;
79543;SDS011;68994;47.176;7.534;2023-05-10T12:27:49;1.13;;;0.68;;
79543;SDS011;68994;47.176;7.534;2023-05-10T12:30:20;3.10;;;1.00;;
79543;SDS011;68994;47.176;7.534;2023-05-10T12:32:48;1.63;;;0.82;;
79543;SDS011;68994;47.176;7.534;2023-05-10T12:35:15;1.80;;;0.80;;
79543;SDS011;68994;47.176;7.534;2023-05-10T12:37:42;0.98;;;0.73;;
79543;SDS011;68994;47.176;7.534;2023-05-10T12:40:09;1.35;;;0.80;;
79543;SDS011;68994;47.176;7.534;2023-05-10T12:42:37;4.68;;;1.55;;
79543;SDS011;68994;47.176;7.534;2023-05-10T12:45:07;2.25;;;1.00;;
79543;SDS011;68994;47.176;7.534;2023-05-10T12:47:34;1.70;;;0.82;;
79543;SDS011;68994;47.176;7.534;2023-05-10T12:50:01;1.40;;;0.73;;
79543;SDS011;68994;47.176;7.534;2023-05-10T12:52:28;1.90;;;0.90;;
79543;SDS011;68994;47.176;7.534;2023-05-10T12:54:56;2.38;;;1.00;;
79543;SDS011;68994;47.176;7.534;2023-05-10T12:57:23;3.10;;;0.95;;
79543;SDS011;68994;47.176;7.534;2023-05-10T12:59:50;2.55;;;0.90;;
79543;SDS011;68994;47.176;7.534;2023-05-10T13:02:18;2.75;;;1.20;;
79543;SDS011;68994;47.176;7.534;2023-05-10T13:04:46;1.58;;;0.77;;
79543;SDS011;68994;47.176;7.534;2023-05-10T13:07:12;4.35;;;1.17;;
79543;SDS011;68994;47.176;7.534;2023-05-10T13:09:39;4.30;;;1.17;;
79543;SDS011;68994;47.176;7.534;2023-05-10T13:12:06;3.70;;;1.10;;
79543;SDS011;68994;47.176;7.534;2023-05-10T13:14:32;2.15;;;1.02;;
79543;SDS011;68994;47.176;7.534;2023-05-10T13:16:59;2.65;;;1.10;;
79543;SDS011;68994;47.176;7.534;2023-05-10T13:19:27;2.35;;;1.13;;
79543;SDS011;68994;47.176;7.534;2023-05-10T13:21:54;1.90;;;1.35;;
79543;SDS011;68994;47.176;7.534;2023-05-10T13:24:20;2.25;;;1.38;;
79543;SDS011;68994;47.176;7.534;2023-05-10T13:26:47;2.50;;;1.30;;
79543;SDS011;68994;47.176;7.534;2023-05-10T13:29:14;3.17;;;1.20;;
79543;SDS011;68994;47.176;7.534;2023-05-10T13:31:43;3.10;;;1.05;;
79543;SDS011;68994;47.176;7.534;2023-05-10T13:34:09;1.75;;;0.82;;
79543;SDS011;68994;47.176;7.534;2023-05-10T13:36:37;1.80;;;1.10;;
79543;SDS011;68994;47.176;7.534;2023-05-10T13:39:04;3.08;;;1.17;;
79543;SDS011;68994;47.176;7.534;2023-05-10T13:41:31;1.63;;;0.98;;
79543;SDS011;68994;47.176;7.534;2023-05-10T13:43:58;2.65;;;1.10;;
79543;SDS011;68994;47.176;7.534;2023-05-10T13:46:24;4.63;;;1.30;;
79543;SDS011;68994;47.176;7.534;2023-05-10T13:48:51;2.50;;;1.10;;
79543;SDS011;68994;47.176;7.534;2023-05-10T13:51:17;2.20;;;1.23;;
79543;SDS011;68994;47.176;7.534;2023-05-10T13:53:45;5.07;;;1.10;;
79543;SDS011;68994;47.176;7.534;2023-05-10T13:56:13;2.95;;;1.20;;
79543;SDS011;68994;47.176;7.534;2023-05-10T13:58:39;2.10;;;1.10;;
79543;SDS011;68994;47.176;7.534;2023-05-10T14:01:06;2.35;;;0.93;;
79543;SDS011;68994;47.176;7.534;2023-05-10T14:03:33;1.52;;;0.80;;
79543;SDS011;68994;47.176;7.534;2023-05-10T14:05:59;2.03;;;0.95;;
79543;SDS011;68994;47.176;7.534;2023-05-10T14:08:26;5.30;;;1.40;;
79543;SDS011;68994;47.176;7.534;2023-05-10T14:10:54;3.45;;;1.00;;
79543;SDS011;68994;47.176;7.534;2023-05-10T14:13:22;2.28;;;1.00;;
79543;SDS011;68994;47.176;7.534;2023-05-10T14:15:49;2.03;;;0.90;;
79543;SDS011;68994;47.176;7.534;2023-05-10T14:18:16;1.23;;;0.85;;
79543;SDS011;68994;47.176;7.534;2023-05-10T14:20:43;2.75;;;0.70;;
79543;SDS011;68994;47.176;7.534;2023-05-10T14:23:09;2.30;;;0.88;;
79543;SDS011;68994;47.176;7.534;2023-05-10T14:25:36;1.13;;;0.65;;
79543;SDS011;68994;47.176;7.534;2023-05-10T14:28:04;4.95;;;0.85;;
79543;SDS011;68994;47.176;7.534;2023-05-10T14:30:31;5.60;;;1.10;;
79543;SDS011;68994;47.176;7.534;2023-05-10T14:32:59;2.08;;;0.73;;
79543;SDS011;68994;47.176;7.534;2023-05-10T14:35:26;3.97;;;1.27;;
79543;SDS011;68994;47.176;7.534;2023-05-10T14:37:53;2.47;;;0.80;;
79543;SDS011;68994;47.176;7.534;2023-05-10T14:40:20;2.90;;;1.02;;
79543;SDS011;68994;47.176;7.534;2023-05-10T14:42:46;1.90;;;0.70;;
79543;SDS011;68994;47.176;7.534;2023-05-10T14:45:14;1.42;;;0.82;;
79543;SDS011;68994;47.176;7.534;2023-05-10T14:47:41;1.25;;;0.70;;
79543;SDS011;68994;47.176;7.534;2023-05-10T14:50:08;1.33;;;1.00;;
79543;SDS011;68994;47.176;7.534;2023-05-10T14:52:34;1.38;;;0.95;;
79543;SDS011;68994;47.176;7.534;2023-05-10T14:55:01;2.47;;;0.90;;
79543;SDS011;68994;47.176;7.534;2023-05-10T14:57:28;1.60;;;0.88;;
79543;SDS011;68994;47.176;7.534;2023-05-10T14:59:55;1.55;;;0.90;;
79543;SDS011;68994;47.176;7.534;2023-05-10T15:02:23;2.90;;;0.80;;
79543;SDS011;68994;47.176;7.534;2023-05-10T15:04:50;2.67;;;1.10;;
79543;SDS011;68994;47.176;7.534;2023-05-10T15:07:16;0.95;;;0.60;;
79543;SDS011;68994;47.176;7.534;2023-05-10T15:09:43;1.77;;;0.70;;